sensor_id;sensor_type;location;lat;lon;timestamp;temperature;humidity
43225;DHT22;28834;48.720;9.208;2022-08-02T00:00:11;17.30;99.90
43225;DHT22;28834;48.720;9.208;2022-08-02T00:02:39;17.30;99.90
43225;DHT22;28834;48.720;9.208;2022-08-02T00:05:05;17.30;99.90
43225;DHT22;28834;48.720;9.208;2022-08-02T00:07:31;17.30;99.90
43225;DHT22;28834;48.720;9.208;2022-08-02T00:09:56;17.30;99.90
43225;DHT22;28834;48.720;9.208;2022-08-02T00:12:22;17.30;99.90
43225;DHT22;28834;48.720;9.208;2022-08-02T00:14:48;17.30;99.90
43225;DHT22;28834;48.720;9.208;2022-08-02T00:17:13;17.20;99.90
43225;DHT22;28834;48.720;9.208;2022-08-02T00:19:39;17.20;99.90
43225;DHT22;28834;48.720;9.208;2022-08-02T00:22:04;17.20;99.90
43225;DHT22;28834;48.720;9.208;2022-08-02T00:24:30;17.20;99.90
43225;DHT22;28834;48.720;9.208;2022-08-02T00:26:56;17.20;99.90
43225;DHT22;28834;48.720;9.208;2022-08-02T00:29:21;17.20;99.90
43225;DHT22;28834;48.720;9.208;2022-08-02T00:31:47;17.20;99.90
43225;DHT22;28834;48.720;9.208;2022-08-02T00:34:12;17.20;99.90
43225;DHT22;28834;48.720;9.208;2022-08-02T00:36:39;17.30;99.90
43225;DHT22;28834;48.720;9.208;2022-08-02T00:39:05;17.30;99.90
43225;DHT22;28834;48.720;9.208;2022-08-02T00:41:30;17.40;99.90
43225;DHT22;28834;48.720;9.208;2022-08-02T00:43:56;17.40;99.90
43225;DHT22;28834;48.720;9.208;2022-08-02T00:46:21;17.40;99.90
43225;DHT22;28834;48.720;9.208;2022-08-02T00:48:47;17.50;99.90
43225;DHT22;28834;48.720;9.208;2022-08-02T00:51:14;17.50;99.90
43225;DHT22;28834;48.720;9.208;2022-08-02T00:53:39;17.50;99.90
43225;DHT22;28834;48.720;9.208;2022-08-02T00:56:05;17.50;99.90
43225;DHT22;28834;48.720;9.208;2022-08-02T00:58:31;17.50;99.90
43225;DHT22;28834;48.720;9.208;2022-08-02T01:00:56;17.40;99.90
43225;DHT22;28834;48.720;9.208;2022-08-02T01:03:25;17.40;99.90
43225;DHT22;28834;48.720;9.208;2022-08-02T01:05:50;17.40;99.90
43225;DHT22;28834;48.720;9.208;2022-08-02T01:08:16;17.40;99.90
43225;DHT22;28834;48.720;9.208;2022-08-02T01:10:42;17.40;99.90
43225;DHT22;28834;48.720;9.208;2022-08-02T01:13:07;17.30;99.90
43225;DHT22;28834;48.720;9.208;2022-08-02T01:15:37;17.30;99.90
43225;DHT22;28834;48.720;9.208;2022-08-02T01:18:07;17.30;99.90
43225;DHT22;28834;48.720;9.208;2022-08-02T01:20:59;17.30;99.90
43225;DHT22;28834;48.720;9.208;2022-08-02T01:29:29;17.20;99.90
43225;DHT22;28834;48.720;9.208;2022-08-02T01:32:08;17.20;99.90
43225;DHT22;28834;48.720;9.208;2022-08-02T01:34:40;17.20;99.90
43225;DHT22;28834;48.720;9.208;2022-08-02T01:37:14;17.10;99.90
43225;DHT22;28834;48.720;9.208;2022-08-02T01:39:42;17.10;99.90
43225;DHT22;28834;48.720;9.208;2022-08-02T01:42:09;17.10;99.90
43225;DHT22;28834;48.720;9.208;2022-08-02T01:44:35;17.10;99.90
43225;DHT22;28834;48.720;9.208;2022-08-02T01:47:06;17.10;99.90
43225;DHT22;28834;48.720;9.208;2022-08-02T01:49:34;17.10;99.90
43225;DHT22;28834;48.720;9.208;2022-08-02T01:52:02;17.10;99.90
43225;DHT22;28834;48.720;9.208;2022-08-02T01:54:49;17.00;99.90
43225;DHT22;28834;48.720;9.208;2022-08-02T01:57:17;17.00;99.90
43225;DHT22;28834;48.720;9.208;2022-08-02T01:59:45;17.00;99.90
43225;DHT22;28834;48.720;9.208;2022-08-02T02:02:13;17.00;99.90
43225;DHT22;28834;48.720;9.208;2022-08-02T02:04:41;17.00;99.90
43225;DHT22;28834;48.720;9.208;2022-08-02T02:07:08;17.00;99.90
43225;DHT22;28834;48.720;9.208;2022-08-02T02:09:37;17.00;99.90
43225;DHT22;28834;48.720;9.208;2022-08-02T02:12:04;17.00;99.90
43225;DHT22;28834;48.720;9.208;2022-08-02T02:14:31;17.00;99.90
43225;DHT22;28834;48.720;9.208;2022-08-02T02:16:58;17.00;99.90
43225;DHT22;28834;48.720;9.208;2022-08-02T02:19:24;16.90;99.90
43225;DHT22;28834;48.720;9.208;2022-08-02T02:21:51;16.90;99.90
43225;DHT22;28834;48.720;9.208;2022-08-02T02:24:16;16.90;99.90
43225;DHT22;28834;48.720;9.208;2022-08-02T02:26:43;16.90;99.90
43225;DHT22;28834;48.720;9.208;2022-08-02T02:29:10;16.80;99.90
43225;DHT22;28834;48.720;9.208;2022-08-02T02:31:38;16.80;99.90
43225;DHT22;28834;48.720;9.208;2022-08-02T02:34:08;16.80;99.90
43225;DHT22;28834;48.720;9.208;2022-08-02T02:36:38;16.80;99.90
43225;DHT22;28834;48.720;9.208;2022-08-02T02:39:06;16.80;99.90
43225;DHT22;28834;48.720;9.208;2022-08-02T02:41:34;16.80;99.90
43225;DHT22;28834;48.720;9.208;2022-08-02T02:44:02;16.80;99.90
43225;DHT22;28834;48.720;9.208;2022-08-02T02:46:31;16.80;99.90
43225;DHT22;28834;48.720;9.208;2022-08-02T02:48:58;16.90;99.90
43225;DHT22;28834;48.720;9.208;2022-08-02T02:51:24;16.80;99.90
43225;DHT22;28834;48.720;9.208;2022-08-02T02:53:51;16.80;99.90
43225;DHT22;28834;48.720;9.208;2022-08-02T02:56:18;16.80;99.90
43225;DHT22;28834;48.720;9.208;2022-08-02T02:58:46;16.80;99.90
43225;DHT22;28834;48.720;9.208;2022-08-02T03:01:12;16.80;99.90
43225;DHT22;28834;48.720;9.208;2022-08-02T03:04:00;16.80;99.90
43225;DHT22;28834;48.720;9.208;2022-08-02T03:06:27;16.80;99.90
43225;DHT22;28834;48.720;9.208;2022-08-02T03:08:53;16.80;99.90
43225;DHT22;28834;48.720;9.208;2022-08-02T03:11:20;16.80;99.90
43225;DHT22;28834;48.720;9.208;2022-08-02T03:13:46;16.70;99.90
43225;DHT22;28834;48.720;9.208;2022-08-02T03:16:12;16.70;99.90
43225;DHT22;28834;48.720;9.208;2022-08-02T03:18:40;16.70;99.90
43225;DHT22;28834;48.720;9.208;2022-08-02T03:21:12;16.70;99.90
43225;DHT22;28834;48.720;9.208;2022-08-02T03:23:39;16.70;99.90
43225;DHT22;28834;48.720;9.208;2022-08-02T03:26:05;16.70;99.90
43225;DHT22;28834;48.720;9.208;2022-08-02T03:28:31;16.60;99.90
43225;DHT22;28834;48.720;9.208;2022-08-02T03:30:57;16.60;99.90
43225;DHT22;28834;48.720;9.208;2022-08-02T03:33:24;16.60;99.90
43225;DHT22;28834;48.720;9.208;2022-08-02T03:35:51;16.60;99.90
43225;DHT22;28834;48.720;9.208;2022-08-02T03:38:19;16.60;99.90
43225;DHT22;28834;48.720;9.208;2022-08-02T03:40:46;16.50;99.90
43225;DHT22;28834;48.720;9.208;2022-08-02T03:43:13;16.50;99.90
43225;DHT22;28834;48.720;9.208;2022-08-02T03:45:44;16.50;99.90
43225;DHT22;28834;48.720;9.208;2022-08-02T03:48:12;16.50;99.90
43225;DHT22;28834;48.720;9.208;2022-08-02T03:50:39;16.50;99.90
43225;DHT22;28834;48.720;9.208;2022-08-02T03:53:06;16.50;99.90
43225;DHT22;28834;48.720;9.208;2022-08-02T03:55:32;16.50;99.90
43225;DHT22;28834;48.720;9.208;2022-08-02T03:57:58;16.50;99.90
43225;DHT22;28834;48.720;9.208;2022-08-02T04:00:24;16.40;99.90
43225;DHT22;28834;48.720;9.208;2022-08-02T04:02:50;16.40;99.90
43225;DHT22;28834;48.720;9.208;2022-08-02T04:05:16;16.40;99.90
43225;DHT22;28834;48.720;9.208;2022-08-02T04:07:42;16.40;99.90
43225;DHT22;28834;48.720;9.208;2022-08-02T04:10:08;16.40;99.90
43225;DHT22;28834;48.720;9.208;2022-08-02T04:12:34;16.40;99.90
43225;DHT22;28834;48.720;9.208;2022-08-02T04:15:01;16.40;99.90
43225;DHT22;28834;48.720;9.208;2022-08-02T04:17:30;16.40;99.90
43225;DHT22;28834;48.720;9.208;2022-08-02T04:20:17;16.40;99.90
43225;DHT22;28834;48.720;9.208;2022-08-02T04:22:50;16.40;99.90
43225;DHT22;28834;48.720;9.208;2022-08-02T04:25:18;16.30;99.90
43225;DHT22;28834;48.720;9.208;2022-08-02T04:27:44;16.20;99.90
43225;DHT22;28834;48.720;9.208;2022-08-02T04:30:10;16.20;99.90
43225;DHT22;28834;48.720;9.208;2022-08-02T04:32:37;16.30;99.90
43225;DHT22;28834;48.720;9.208;2022-08-02T04:35:03;16.40;99.90
43225;DHT22;28834;48.720;9.208;2022-08-02T04:37:29;16.40;99.90
43225;DHT22;28834;48.720;9.208;2022-08-02T04:39:54;16.40;99.90
43225;DHT22;28834;48.720;9.208;2022-08-02T04:42:24;16.40;99.90
43225;DHT22;28834;48.720;9.208;2022-08-02T04:44:51;16.40;99.90
43225;DHT22;28834;48.720;9.208;2022-08-02T04:47:18;16.50;99.90
43225;DHT22;28834;48.720;9.208;2022-08-02T04:49:44;16.50;99.90
43225;DHT22;28834;48.720;9.208;2022-08-02T04:52:09;16.40;99.90
43225;DHT22;28834;48.720;9.208;2022-08-02T04:54:35;16.50;99.90
43225;DHT22;28834;48.720;9.208;2022-08-02T04:57:01;16.40;99.90
43225;DHT22;28834;48.720;9.208;2022-08-02T04:59:46;16.50;99.90
43225;DHT22;28834;48.720;9.208;2022-08-02T05:02:12;16.50;99.90
43225;DHT22;28834;48.720;9.208;2022-08-02T05:04:37;16.60;99.90
43225;DHT22;28834;48.720;9.208;2022-08-02T05:07:03;16.60;99.90
43225;DHT22;28834;48.720;9.208;2022-08-02T05:09:28;16.70;99.90
43225;DHT22;28834;48.720;9.208;2022-08-02T05:11:54;16.70;99.90
43225;DHT22;28834;48.720;9.208;2022-08-02T05:14:19;16.80;99.90
43225;DHT22;28834;48.720;9.208;2022-08-02T05:16:45;16.90;99.90
43225;DHT22;28834;48.720;9.208;2022-08-02T05:19:10;16.90;99.90
43225;DHT22;28834;48.720;9.208;2022-08-02T05:21:36;16.90;99.90
43225;DHT22;28834;48.720;9.208;2022-08-02T05:24:01;17.00;99.90
43225;DHT22;28834;48.720;9.208;2022-08-02T05:26:27;17.10;99.90
43225;DHT22;28834;48.720;9.208;2022-08-02T05:28:53;17.10;99.90
43225;DHT22;28834;48.720;9.208;2022-08-02T05:31:18;17.10;99.90
43225;DHT22;28834;48.720;9.208;2022-08-02T05:33:44;17.20;99.90
43225;DHT22;28834;48.720;9.208;2022-08-02T05:36:10;17.20;99.90
43225;DHT22;28834;48.720;9.208;2022-08-02T05:38:35;17.30;99.90
43225;DHT22;28834;48.720;9.208;2022-08-02T05:41:01;17.40;99.90
43225;DHT22;28834;48.720;9.208;2022-08-02T05:43:27;17.40;99.90
43225;DHT22;28834;48.720;9.208;2022-08-02T05:45:52;17.50;99.90
43225;DHT22;28834;48.720;9.208;2022-08-02T05:48:18;17.50;99.90
43225;DHT22;28834;48.720;9.208;2022-08-02T05:50:44;17.60;99.90
43225;DHT22;28834;48.720;9.208;2022-08-02T05:53:22;17.60;99.90
43225;DHT22;28834;48.720;9.208;2022-08-02T05:55:56;17.70;99.90
43225;DHT22;28834;48.720;9.208;2022-08-02T06:01:31;17.80;99.90
43225;DHT22;28834;48.720;9.208;2022-08-02T06:03:58;17.90;99.90
43225;DHT22;28834;48.720;9.208;2022-08-02T06:06:25;18.00;99.90
43225;DHT22;28834;48.720;9.208;2022-08-02T06:08:58;18.00;99.90
43225;DHT22;28834;48.720;9.208;2022-08-02T06:11:39;18.00;99.90
43225;DHT22;28834;48.720;9.208;2022-08-02T06:14:06;18.00;99.90
43225;DHT22;28834;48.720;9.208;2022-08-02T06:16:33;18.00;99.90
43225;DHT22;28834;48.720;9.208;2022-08-02T06:18:59;18.00;99.90
43225;DHT22;28834;48.720;9.208;2022-08-02T06:21:26;18.10;99.90
43225;DHT22;28834;48.720;9.208;2022-08-02T06:23:52;18.10;99.90
43225;DHT22;28834;48.720;9.208;2022-08-02T06:26:18;18.10;99.90
43225;DHT22;28834;48.720;9.208;2022-08-02T06:28:46;18.10;99.90
43225;DHT22;28834;48.720;9.208;2022-08-02T06:31:13;18.20;99.90
43225;DHT22;28834;48.720;9.208;2022-08-02T06:33:39;18.30;99.90
43225;DHT22;28834;48.720;9.208;2022-08-02T06:36:27;18.40;99.90
43225;DHT22;28834;48.720;9.208;2022-08-02T06:39:00;18.40;99.90
43225;DHT22;28834;48.720;9.208;2022-08-02T06:41:30;18.50;99.90
43225;DHT22;28834;48.720;9.208;2022-08-02T06:44:02;18.50;99.90
43225;DHT22;28834;48.720;9.208;2022-08-02T06:46:29;18.60;99.90
43225;DHT22;28834;48.720;9.208;2022-08-02T06:48:55;18.70;99.90
43225;DHT22;28834;48.720;9.208;2022-08-02T06:51:21;18.80;99.90
43225;DHT22;28834;48.720;9.208;2022-08-02T06:53:47;18.90;99.90
43225;DHT22;28834;48.720;9.208;2022-08-02T06:56:13;19.00;99.90
43225;DHT22;28834;48.720;9.208;2022-08-02T06:58:39;19.20;99.90
43225;DHT22;28834;48.720;9.208;2022-08-02T07:01:05;19.30;99.90
43225;DHT22;28834;48.720;9.208;2022-08-02T07:03:33;19.30;99.90
43225;DHT22;28834;48.720;9.208;2022-08-02T07:05:59;19.30;99.90
43225;DHT22;28834;48.720;9.208;2022-08-02T07:08:24;19.30;99.90
43225;DHT22;28834;48.720;9.208;2022-08-02T07:10:51;19.40;99.90
43225;DHT22;28834;48.720;9.208;2022-08-02T07:13:17;19.50;99.90
43225;DHT22;28834;48.720;9.208;2022-08-02T07:15:43;19.70;99.90
43225;DHT22;28834;48.720;9.208;2022-08-02T07:18:08;19.90;99.90
43225;DHT22;28834;48.720;9.208;2022-08-02T07:20:40;20.00;99.90
43225;DHT22;28834;48.720;9.208;2022-08-02T07:23:06;20.10;99.90
43225;DHT22;28834;48.720;9.208;2022-08-02T07:25:31;20.30;99.90
43225;DHT22;28834;48.720;9.208;2022-08-02T07:27:57;20.50;99.90
43225;DHT22;28834;48.720;9.208;2022-08-02T07:30:22;20.70;99.90
43225;DHT22;28834;48.720;9.208;2022-08-02T07:32:48;20.90;99.90
43225;DHT22;28834;48.720;9.208;2022-08-02T07:35:13;20.90;99.90
43225;DHT22;28834;48.720;9.208;2022-08-02T07:37:39;21.10;99.90
43225;DHT22;28834;48.720;9.208;2022-08-02T07:40:08;21.30;99.90
43225;DHT22;28834;48.720;9.208;2022-08-02T07:42:33;21.20;99.90
43225;DHT22;28834;48.720;9.208;2022-08-02T07:44:59;21.40;99.90
43225;DHT22;28834;48.720;9.208;2022-08-02T07:47:24;21.70;99.90
43225;DHT22;28834;48.720;9.208;2022-08-02T07:49:50;21.80;99.90
43225;DHT22;28834;48.720;9.208;2022-08-02T07:52:16;21.70;99.90
43225;DHT22;28834;48.720;9.208;2022-08-02T07:54:41;21.80;99.90
43225;DHT22;28834;48.720;9.208;2022-08-02T07:57:07;22.00;99.90
43225;DHT22;28834;48.720;9.208;2022-08-02T07:59:32;22.10;99.90
43225;DHT22;28834;48.720;9.208;2022-08-02T08:01:58;22.30;99.90
43225;DHT22;28834;48.720;9.208;2022-08-02T08:04:24;22.50;99.90
43225;DHT22;28834;48.720;9.208;2022-08-02T08:06:49;22.70;99.90
43225;DHT22;28834;48.720;9.208;2022-08-02T08:09:17;22.80;99.90
43225;DHT22;28834;48.720;9.208;2022-08-02T08:11:43;22.90;99.90
43225;DHT22;28834;48.720;9.208;2022-08-02T08:14:09;23.00;99.90
43225;DHT22;28834;48.720;9.208;2022-08-02T08:16:34;23.10;99.90
43225;DHT22;28834;48.720;9.208;2022-08-02T08:19:00;23.20;99.90
43225;DHT22;28834;48.720;9.208;2022-08-02T08:21:27;23.40;99.90
43225;DHT22;28834;48.720;9.208;2022-08-02T08:23:54;23.50;99.90
43225;DHT22;28834;48.720;9.208;2022-08-02T08:26:19;23.60;99.90
43225;DHT22;28834;48.720;9.208;2022-08-02T08:28:45;23.60;99.90
43225;DHT22;28834;48.720;9.208;2022-08-02T08:31:11;23.70;99.90
43225;DHT22;28834;48.720;9.208;2022-08-02T08:33:36;23.70;99.90
43225;DHT22;28834;48.720;9.208;2022-08-02T08:36:02;23.60;99.90
43225;DHT22;28834;48.720;9.208;2022-08-02T08:38:28;23.70;99.90
43225;DHT22;28834;48.720;9.208;2022-08-02T08:40:54;23.70;99.90
43225;DHT22;28834;48.720;9.208;2022-08-02T08:43:19;23.70;99.90
43225;DHT22;28834;48.720;9.208;2022-08-02T08:45:46;23.70;99.90
43225;DHT22;28834;48.720;9.208;2022-08-02T08:48:15;23.60;99.90
43225;DHT22;28834;48.720;9.208;2022-08-02T08:50:49;23.60;99.90
43225;DHT22;28834;48.720;9.208;2022-08-02T08:53:18;23.70;99.90
43225;DHT22;28834;48.720;9.208;2022-08-02T08:55:44;23.60;99.90
43225;DHT22;28834;48.720;9.208;2022-08-02T08:58:11;23.80;99.90
43225;DHT22;28834;48.720;9.208;2022-08-02T09:00:36;24.00;99.90
43225;DHT22;28834;48.720;9.208;2022-08-02T09:03:06;24.20;99.90
43225;DHT22;28834;48.720;9.208;2022-08-02T09:05:37;24.50;99.90
43225;DHT22;28834;48.720;9.208;2022-08-02T09:08:03;24.60;99.90
43225;DHT22;28834;48.720;9.208;2022-08-02T09:13:21;24.70;99.90
43225;DHT22;28834;48.720;9.208;2022-08-02T09:16:01;24.90;99.90
43225;DHT22;28834;48.720;9.208;2022-08-02T09:18:35;25.00;99.90
43225;DHT22;28834;48.720;9.208;2022-08-02T09:21:10;25.10;99.90
43225;DHT22;28834;48.720;9.208;2022-08-02T09:23:44;25.40;99.90
43225;DHT22;28834;48.720;9.208;2022-08-02T09:26:14;25.50;99.90
43225;DHT22;28834;48.720;9.208;2022-08-02T09:28:43;25.60;99.90
43225;DHT22;28834;48.720;9.208;2022-08-02T09:31:10;25.70;99.90
43225;DHT22;28834;48.720;9.208;2022-08-02T09:33:38;25.70;99.90
43225;DHT22;28834;48.720;9.208;2022-08-02T09:38:31;25.30;99.90
43225;DHT22;28834;48.720;9.208;2022-08-02T09:40:58;25.20;99.90
43225;DHT22;28834;48.720;9.208;2022-08-02T09:43:34;25.20;99.90
43225;DHT22;28834;48.720;9.208;2022-08-02T09:46:16;25.40;99.90
43225;DHT22;28834;48.720;9.208;2022-08-02T09:48:53;25.50;99.90
43225;DHT22;28834;48.720;9.208;2022-08-02T09:51:31;25.80;99.90
43225;DHT22;28834;48.720;9.208;2022-08-02T09:54:05;25.70;99.90
43225;DHT22;28834;48.720;9.208;2022-08-02T09:59:09;25.70;99.90
43225;DHT22;28834;48.720;9.208;2022-08-02T10:01:36;26.00;99.90
43225;DHT22;28834;48.720;9.208;2022-08-02T10:04:05;26.20;99.90
43225;DHT22;28834;48.720;9.208;2022-08-02T10:06:31;26.40;99.70
43225;DHT22;28834;48.720;9.208;2022-08-02T10:08:57;26.60;97.20
43225;DHT22;28834;48.720;9.208;2022-08-02T10:11:24;26.70;97.00
43225;DHT22;28834;48.720;9.208;2022-08-02T10:13:50;26.70;97.50
43225;DHT22;28834;48.720;9.208;2022-08-02T10:16:18;26.80;98.30
43225;DHT22;28834;48.720;9.208;2022-08-02T10:18:48;26.90;96.30
43225;DHT22;28834;48.720;9.208;2022-08-02T10:21:26;27.00;97.10
43225;DHT22;28834;48.720;9.208;2022-08-02T10:24:08;27.10;94.90
43225;DHT22;28834;48.720;9.208;2022-08-02T10:26:34;27.20;94.80
43225;DHT22;28834;48.720;9.208;2022-08-02T10:29:00;27.30;95.70
43225;DHT22;28834;48.720;9.208;2022-08-02T10:31:29;27.40;95.10
43225;DHT22;28834;48.720;9.208;2022-08-02T10:33:59;27.60;95.80
43225;DHT22;28834;48.720;9.208;2022-08-02T10:36:28;27.80;95.30
43225;DHT22;28834;48.720;9.208;2022-08-02T10:38:56;27.90;93.70
43225;DHT22;28834;48.720;9.208;2022-08-02T10:41:43;28.00;93.30
43225;DHT22;28834;48.720;9.208;2022-08-02T10:44:29;27.90;92.00
43225;DHT22;28834;48.720;9.208;2022-08-02T10:49:57;27.40;91.70
43225;DHT22;28834;48.720;9.208;2022-08-02T10:52:26;26.90;92.20
43225;DHT22;28834;48.720;9.208;2022-08-02T10:55:09;26.50;94.80
43225;DHT22;28834;48.720;9.208;2022-08-02T10:57:35;26.50;94.40
43225;DHT22;28834;48.720;9.208;2022-08-02T11:02:42;27.10;94.70
43225;DHT22;28834;48.720;9.208;2022-08-02T11:07:46;27.10;92.50
43225;DHT22;28834;48.720;9.208;2022-08-02T11:10:38;26.70;93.10
43225;DHT22;28834;48.720;9.208;2022-08-02T11:13:15;26.50;94.90
43225;DHT22;28834;48.720;9.208;2022-08-02T11:18:20;27.10;94.10
43225;DHT22;28834;48.720;9.208;2022-08-02T11:20:46;27.40;91.50
43225;DHT22;28834;48.720;9.208;2022-08-02T11:23:34;27.60;93.50
43225;DHT22;28834;48.720;9.208;2022-08-02T11:26:01;27.70;90.20
43225;DHT22;28834;48.720;9.208;2022-08-02T11:28:30;27.80;92.20
43225;DHT22;28834;48.720;9.208;2022-08-02T11:30:58;27.40;91.80
43225;DHT22;28834;48.720;9.208;2022-08-02T11:33:30;27.30;91.10
43225;DHT22;28834;48.720;9.208;2022-08-02T11:36:04;27.30;90.70
43225;DHT22;28834;48.720;9.208;2022-08-02T11:38:30;27.20;91.00
43225;DHT22;28834;48.720;9.208;2022-08-02T11:40:55;26.80;92.30
43225;DHT22;28834;48.720;9.208;2022-08-02T11:43:25;26.50;92.10
43225;DHT22;28834;48.720;9.208;2022-08-02T11:45:52;26.60;94.00
43225;DHT22;28834;48.720;9.208;2022-08-02T11:48:30;26.90;91.00
43225;DHT22;28834;48.720;9.208;2022-08-02T11:51:14;27.00;87.10
43225;DHT22;28834;48.720;9.208;2022-08-02T11:53:54;27.20;90.80
43225;DHT22;28834;48.720;9.208;2022-08-02T11:56:29;27.30;90.40
43225;DHT22;28834;48.720;9.208;2022-08-02T11:59:02;27.40;84.00
43225;DHT22;28834;48.720;9.208;2022-08-02T12:01:29;27.40;89.90
43225;DHT22;28834;48.720;9.208;2022-08-02T12:03:55;27.50;86.50
43225;DHT22;28834;48.720;9.208;2022-08-02T12:06:24;27.60;90.00
43225;DHT22;28834;48.720;9.208;2022-08-02T12:08:50;27.60;88.80
43225;DHT22;28834;48.720;9.208;2022-08-02T12:11:18;27.30;85.40
43225;DHT22;28834;48.720;9.208;2022-08-02T12:13:44;27.40;90.20
43225;DHT22;28834;48.720;9.208;2022-08-02T12:16:11;27.50;90.60
43225;DHT22;28834;48.720;9.208;2022-08-02T12:18:56;27.50;89.70
43225;DHT22;28834;48.720;9.208;2022-08-02T12:21:40;27.50;83.60
43225;DHT22;28834;48.720;9.208;2022-08-02T12:24:06;27.30;90.20
43225;DHT22;28834;48.720;9.208;2022-08-02T12:26:41;27.30;90.50
43225;DHT22;28834;48.720;9.208;2022-08-02T12:29:07;27.30;85.50
43225;DHT22;28834;48.720;9.208;2022-08-02T12:31:44;27.30;89.20
43225;DHT22;28834;48.720;9.208;2022-08-02T12:34:14;27.50;87.00
43225;DHT22;28834;48.720;9.208;2022-08-02T12:36:41;27.60;82.70
43225;DHT22;28834;48.720;9.208;2022-08-02T12:39:11;27.60;91.60
43225;DHT22;28834;48.720;9.208;2022-08-02T12:41:38;27.60;85.40
43225;DHT22;28834;48.720;9.208;2022-08-02T12:44:12;27.60;83.10
43225;DHT22;28834;48.720;9.208;2022-08-02T12:46:38;27.70;80.00
43225;DHT22;28834;48.720;9.208;2022-08-02T12:49:14;27.70;81.80
43225;DHT22;28834;48.720;9.208;2022-08-02T12:51:40;27.80;78.20
43225;DHT22;28834;48.720;9.208;2022-08-02T12:54:15;27.90;83.00
43225;DHT22;28834;48.720;9.208;2022-08-02T12:56:40;28.10;84.10
43225;DHT22;28834;48.720;9.208;2022-08-02T12:59:06;28.20;77.30
43225;DHT22;28834;48.720;9.208;2022-08-02T13:01:34;28.10;77.40
43225;DHT22;28834;48.720;9.208;2022-08-02T13:03:59;28.20;81.20
43225;DHT22;28834;48.720;9.208;2022-08-02T13:06:25;28.30;82.90
43225;DHT22;28834;48.720;9.208;2022-08-02T13:08:51;28.50;86.00
43225;DHT22;28834;48.720;9.208;2022-08-02T13:11:21;28.60;82.70
43225;DHT22;28834;48.720;9.208;2022-08-02T13:13:46;28.50;84.40
43225;DHT22;28834;48.720;9.208;2022-08-02T13:16:12;28.20;80.40
43225;DHT22;28834;48.720;9.208;2022-08-02T13:18:38;27.80;79.10
43225;DHT22;28834;48.720;9.208;2022-08-02T13:21:05;27.80;80.10
43225;DHT22;28834;48.720;9.208;2022-08-02T13:23:32;27.60;79.70
43225;DHT22;28834;48.720;9.208;2022-08-02T13:25:59;27.40;85.60
43225;DHT22;28834;48.720;9.208;2022-08-02T13:28:25;27.10;90.10
43225;DHT22;28834;48.720;9.208;2022-08-02T13:30:51;26.80;87.50
43225;DHT22;28834;48.720;9.208;2022-08-02T13:33:17;26.70;90.00
43225;DHT22;28834;48.720;9.208;2022-08-02T13:35:43;26.80;84.80
43225;DHT22;28834;48.720;9.208;2022-08-02T13:38:10;26.90;88.00
43225;DHT22;28834;48.720;9.208;2022-08-02T13:40:35;27.00;80.80
43225;DHT22;28834;48.720;9.208;2022-08-02T13:43:21;27.20;78.60
43225;DHT22;28834;48.720;9.208;2022-08-02T13:45:47;27.30;85.20
43225;DHT22;28834;48.720;9.208;2022-08-02T13:48:12;27.50;78.70
43225;DHT22;28834;48.720;9.208;2022-08-02T13:50:38;27.80;85.20
43225;DHT22;28834;48.720;9.208;2022-08-02T13:53:03;27.90;75.90
43225;DHT22;28834;48.720;9.208;2022-08-02T13:55:29;27.90;76.30
43225;DHT22;28834;48.720;9.208;2022-08-02T13:57:55;27.90;82.50
43225;DHT22;28834;48.720;9.208;2022-08-02T14:00:21;27.80;75.60
43225;DHT22;28834;48.720;9.208;2022-08-02T14:02:47;27.70;73.60
43225;DHT22;28834;48.720;9.208;2022-08-02T14:05:13;27.80;79.80
43225;DHT22;28834;48.720;9.208;2022-08-02T14:07:38;27.90;84.50
43225;DHT22;28834;48.720;9.208;2022-08-02T14:10:04;28.10;78.00
43225;DHT22;28834;48.720;9.208;2022-08-02T14:12:30;28.20;82.00
43225;DHT22;28834;48.720;9.208;2022-08-02T14:14:55;28.20;83.00
43225;DHT22;28834;48.720;9.208;2022-08-02T14:17:21;28.40;76.20
43225;DHT22;28834;48.720;9.208;2022-08-02T14:19:46;28.60;78.80
43225;DHT22;28834;48.720;9.208;2022-08-02T14:22:12;28.80;79.80
43225;DHT22;28834;48.720;9.208;2022-08-02T14:24:37;28.90;69.70
43225;DHT22;28834;48.720;9.208;2022-08-02T14:27:03;29.00;68.60
43225;DHT22;28834;48.720;9.208;2022-08-02T14:29:29;29.00;69.70
43225;DHT22;28834;48.720;9.208;2022-08-02T14:31:54;28.90;68.90
43225;DHT22;28834;48.720;9.208;2022-08-02T14:34:20;28.90;70.30
43225;DHT22;28834;48.720;9.208;2022-08-02T14:36:45;28.90;70.20
43225;DHT22;28834;48.720;9.208;2022-08-02T14:39:11;28.90;71.80
43225;DHT22;28834;48.720;9.208;2022-08-02T14:41:37;28.90;71.30
43225;DHT22;28834;48.720;9.208;2022-08-02T14:44:03;28.90;70.20
43225;DHT22;28834;48.720;9.208;2022-08-02T14:46:31;28.90;69.40
43225;DHT22;28834;48.720;9.208;2022-08-02T14:48:57;29.10;70.60
43225;DHT22;28834;48.720;9.208;2022-08-02T14:51:27;29.30;69.90
43225;DHT22;28834;48.720;9.208;2022-08-02T14:53:52;29.50;70.80
43225;DHT22;28834;48.720;9.208;2022-08-02T14:56:18;29.60;68.90
43225;DHT22;28834;48.720;9.208;2022-08-02T14:58:43;29.60;67.50
43225;DHT22;28834;48.720;9.208;2022-08-02T15:01:09;29.50;66.50
43225;DHT22;28834;48.720;9.208;2022-08-02T15:03:34;29.50;66.40
43225;DHT22;28834;48.720;9.208;2022-08-02T15:06:00;29.60;65.60
43225;DHT22;28834;48.720;9.208;2022-08-02T15:08:25;29.60;64.60
43225;DHT22;28834;48.720;9.208;2022-08-02T15:10:51;29.50;65.60
43225;DHT22;28834;48.720;9.208;2022-08-02T15:13:16;29.40;67.80
43225;DHT22;28834;48.720;9.208;2022-08-02T15:15:42;29.60;66.40
43225;DHT22;28834;48.720;9.208;2022-08-02T15:18:08;29.50;67.30
43225;DHT22;28834;48.720;9.208;2022-08-02T15:20:33;29.40;65.70
43225;DHT22;28834;48.720;9.208;2022-08-02T15:22:59;29.50;65.90
43225;DHT22;28834;48.720;9.208;2022-08-02T15:25:25;29.50;64.30
43225;DHT22;28834;48.720;9.208;2022-08-02T15:27:50;29.30;63.50
43225;DHT22;28834;48.720;9.208;2022-08-02T15:30:16;29.30;67.20
43225;DHT22;28834;48.720;9.208;2022-08-02T15:32:41;29.20;70.90
43225;DHT22;28834;48.720;9.208;2022-08-02T15:35:07;29.00;67.20
43225;DHT22;28834;48.720;9.208;2022-08-02T15:37:32;28.70;65.80
43225;DHT22;28834;48.720;9.208;2022-08-02T15:39:59;28.50;67.80
43225;DHT22;28834;48.720;9.208;2022-08-02T15:42:25;28.20;66.10
43225;DHT22;28834;48.720;9.208;2022-08-02T15:44:50;28.10;63.20
43225;DHT22;28834;48.720;9.208;2022-08-02T15:47:16;27.90;62.60
43225;DHT22;28834;48.720;9.208;2022-08-02T15:49:45;27.80;64.30
43225;DHT22;28834;48.720;9.208;2022-08-02T15:52:10;27.60;65.80
43225;DHT22;28834;48.720;9.208;2022-08-02T15:54:36;27.50;67.50
43225;DHT22;28834;48.720;9.208;2022-08-02T15:57:01;27.40;64.10
43225;DHT22;28834;48.720;9.208;2022-08-02T15:59:27;27.30;65.20
43225;DHT22;28834;48.720;9.208;2022-08-02T16:01:52;27.30;67.40